createdAt,value
2022-10-23T00:00:34.728Z,8.38
2022-10-23T00:03:01.788Z,7.97
2022-10-23T00:05:28.956Z,7.60
2022-10-23T00:07:56.931Z,7.70
2022-10-23T00:10:24.177Z,7.80
2022-10-23T00:12:51.237Z,7.22
2022-10-23T00:15:19.003Z,6.43
2022-10-23T00:17:46.047Z,6.55
2022-10-23T00:20:13.182Z,6.25
2022-10-23T00:22:40.295Z,6.10
2022-10-23T00:25:07.779Z,6.13
2022-10-23T00:27:34.841Z,5.63
2022-10-23T00:30:02.079Z,7.28
2022-10-23T00:32:29.130Z,8.95
2022-10-23T00:34:56.194Z,6.72
2022-10-23T00:37:23.213Z,8.40
2022-10-23T00:39:50.258Z,7.07
2022-10-23T00:42:17.782Z,7.88
2022-10-23T00:44:44.775Z,6.78
2022-10-23T00:47:11.780Z,7.07
2022-10-23T00:49:41.962Z,7.30
2022-10-23T00:52:10.543Z,8.05
2022-10-23T00:54:38.996Z,8.85
2022-10-23T00:57:06.876Z,9.23
2022-10-23T00:59:34.042Z,8.52
2022-10-23T01:02:01.159Z,7.72
2022-10-23T01:04:28.394Z,9.52
2022-10-23T01:07:04.650Z,8.27
2022-10-23T01:09:48.077Z,7.82
2022-10-23T01:12:24.131Z,7.18
2022-10-23T01:14:54.827Z,7.00
2022-10-23T01:17:31.300Z,7.13
2022-10-23T01:20:30.963Z,6.70
2022-10-23T01:23:06.132Z,6.70
2022-10-23T01:25:39.185Z,7.25
2022-10-23T01:28:07.013Z,6.88
2022-10-23T01:30:34.209Z,8.80
2022-10-23T01:33:07.978Z,7.93
2022-10-23T01:35:42.078Z,9.70
2022-10-23T01:38:27.938Z,8.90
2022-10-23T01:41:02.815Z,8.40
2022-10-23T01:43:31.190Z,8.75
2022-10-23T01:46:02.572Z,7.80
2022-10-23T01:48:29.985Z,7.45
2022-10-23T01:50:58.012Z,6.78
2022-10-23T01:53:25.028Z,6.13
2022-10-23T01:55:52.031Z,7.05
2022-10-23T01:58:21.020Z,6.55
2022-10-23T02:00:48.121Z,3.78
2022-10-23T02:03:16.002Z,6.05
2022-10-23T02:05:43.545Z,4.07
2022-10-23T02:08:10.566Z,3.50
2022-10-23T02:10:50.662Z,4.30
2022-10-23T02:13:23.839Z,3.92
2022-10-23T02:15:51.455Z,4.43
2022-10-23T02:18:35.695Z,5.28
2022-10-23T02:21:10.973Z,4.97
2022-10-23T02:23:43.789Z,4.85
2022-10-23T02:26:18.239Z,4.88
2022-10-23T02:28:46.875Z,4.50
2022-10-23T02:31:14.385Z,4.70
2022-10-23T02:33:41.455Z,4.90
2022-10-23T02:36:08.697Z,4.90
2022-10-23T02:38:42.656Z,5.88
2022-10-23T02:41:12.677Z,5.38
2022-10-23T02:43:46.103Z,5.60
2022-10-23T02:46:18.383Z,6.30
2022-10-23T02:48:48.115Z,4.95
2022-10-23T02:51:47.611Z,5.83
2022-10-23T02:54:21.401Z,5.53
2022-10-23T02:56:51.567Z,5.38
2022-10-23T02:59:38.840Z,5.40
2022-10-23T03:02:10.187Z,5.50
2022-10-23T03:04:37.835Z,5.72
2022-10-23T03:07:04.830Z,5.55
2022-10-23T03:09:31.842Z,6.90
2022-10-23T03:11:58.852Z,8.77
2022-10-23T03:14:25.874Z,7.05
2022-10-23T03:16:52.868Z,7.68
2022-10-23T03:19:19.888Z,6.40
2022-10-23T03:21:46.887Z,5.78
2022-10-23T03:24:13.964Z,5.82
2022-10-23T03:26:40.955Z,6.80
2022-10-23T03:29:07.984Z,6.32
2022-10-23T03:31:34.971Z,5.82
2022-10-23T03:34:04.086Z,6.63
2022-10-23T03:36:33.327Z,5.82
2022-10-23T03:39:00.344Z,5.70
2022-10-23T03:41:27.412Z,5.20
2022-10-23T03:43:54.523Z,5.50
2022-10-23T03:46:21.583Z,5.18
2022-10-23T03:48:48.693Z,6.05
2022-10-23T03:51:15.719Z,6.10
2022-10-23T03:53:42.771Z,6.65
2022-10-23T03:56:09.862Z,6.35
2022-10-23T03:58:36.858Z,5.97
2022-10-23T04:01:03.920Z,5.97
2022-10-23T04:03:31.018Z,5.70
2022-10-23T04:05:58.018Z,5.60
2022-10-23T04:08:25.038Z,5.53
2022-10-23T04:10:52.067Z,5.75
2022-10-23T04:13:19.061Z,5.10
2022-10-23T04:15:49.833Z,5.15
2022-10-23T04:18:16.995Z,4.47
2022-10-23T04:20:44.015Z,4.40
2022-10-23T04:23:11.020Z,5.18
2022-10-23T04:25:38.079Z,4.78
2022-10-23T04:28:05.186Z,5.38
2022-10-23T04:30:32.232Z,4.80
2022-10-23T04:32:59.247Z,4.20
2022-10-23T04:35:26.324Z,4.70
2022-10-23T04:37:53.354Z,4.85
2022-10-23T04:40:20.407Z,4.90
2022-10-23T04:42:47.448Z,5.30
2022-10-23T04:45:14.445Z,6.25
2022-10-23T04:47:41.451Z,5.85
2022-10-23T04:50:08.580Z,5.75
2022-10-23T04:52:35.600Z,5.30
2022-10-23T04:55:02.599Z,5.90
2022-10-23T04:57:29.605Z,5.35
2022-10-23T04:59:56.614Z,4.68
2022-10-23T05:02:24.337Z,6.43
2022-10-23T05:04:51.410Z,5.97
2022-10-23T05:07:18.414Z,5.85
2022-10-23T05:09:45.465Z,6.00
2022-10-23T05:12:12.483Z,5.88
2022-10-23T05:14:39.568Z,6.93
2022-10-23T05:17:13.661Z,6.45
2022-10-23T05:19:42.234Z,6.35
2022-10-23T05:22:09.226Z,5.50
2022-10-23T05:24:36.309Z,6.05
2022-10-23T05:27:03.317Z,6.00
2022-10-23T05:29:30.383Z,6.20
2022-10-23T05:31:58.060Z,5.75
2022-10-23T05:34:25.558Z,6.60
2022-10-23T05:36:52.610Z,6.60
2022-10-23T05:39:19.636Z,6.60
2022-10-23T05:41:46.739Z,7.00
2022-10-23T05:44:13.753Z,6.60
2022-10-23T05:46:42.079Z,5.80
2022-10-23T05:49:09.150Z,6.32
2022-10-23T05:51:39.701Z,7.45
2022-10-23T05:56:35.740Z,5.97
2022-10-23T05:59:02.760Z,6.18
2022-10-23T06:01:29.876Z,5.40
2022-10-23T06:03:57.141Z,5.43
2022-10-23T06:06:24.206Z,6.78
2022-10-23T06:08:51.223Z,6.75
2022-10-23T06:11:18.259Z,6.32
2022-10-23T06:13:45.566Z,6.53
2022-10-23T06:16:16.170Z,6.55
2022-10-23T06:21:10.229Z,5.38
2022-10-23T06:23:37.525Z,5.57
2022-10-23T06:26:04.790Z,5.20
2022-10-23T06:28:31.788Z,5.72
2022-10-23T06:30:58.827Z,4.63
2022-10-23T06:33:25.856Z,4.65
2022-10-23T06:35:53.206Z,4.90
2022-10-23T06:38:20.246Z,5.45
2022-10-23T06:40:52.378Z,5.30
2022-10-23T06:43:19.468Z,4.95
2022-10-23T06:45:46.499Z,4.57
2022-10-23T06:48:13.540Z,6.80
2022-10-23T06:50:40.538Z,7.82
2022-10-23T06:53:07.665Z,4.97
2022-10-23T06:55:34.792Z,4.63
2022-10-23T06:58:02.657Z,4.68
2022-10-23T07:00:29.763Z,4.53
2022-10-23T07:02:56.937Z,4.80
2022-10-23T07:05:23.975Z,4.70
2022-10-23T07:07:50.986Z,4.55
2022-10-23T07:10:18.010Z,4.00
2022-10-23T07:12:45.338Z,4.35
2022-10-23T07:15:12.725Z,4.18
2022-10-23T07:17:39.761Z,4.30
2022-10-23T07:20:06.963Z,5.05
2022-10-23T07:22:34.050Z,3.97
2022-10-23T07:25:01.042Z,4.45
2022-10-23T07:27:28.136Z,4.88
2022-10-23T07:29:55.233Z,4.80
2022-10-23T07:32:23.890Z,4.88
2022-10-23T07:34:50.876Z,5.13
2022-10-23T07:37:17.916Z,4.45
2022-10-23T07:39:44.934Z,3.88
2022-10-23T07:42:11.963Z,4.47
2022-10-23T07:44:39.020Z,3.67
2022-10-23T07:47:06.027Z,3.30
2022-10-23T07:49:33.009Z,3.38
2022-10-23T07:52:00.118Z,4.65
2022-10-23T07:54:27.151Z,4.97
2022-10-23T07:56:54.140Z,3.53
2022-10-23T07:59:21.207Z,3.00
2022-10-23T08:01:51.439Z,3.00
2022-10-23T08:04:20.984Z,3.42
2022-10-23T08:06:48.046Z,2.45
2022-10-23T08:09:15.216Z,1.98
2022-10-23T08:11:42.318Z,2.50
2022-10-23T08:14:09.859Z,2.20
2022-10-23T08:16:37.544Z,2.25
2022-10-23T08:19:04.948Z,2.10
2022-10-23T08:21:32.022Z,2.40
2022-10-23T08:23:59.377Z,2.00
2022-10-23T08:26:26.474Z,1.75
2022-10-23T08:28:53.555Z,1.75
2022-10-23T08:31:20.963Z,1.92
2022-10-23T08:36:23.918Z,1.58
2022-10-23T08:38:53.488Z,1.90
2022-10-23T08:41:26.794Z,2.03
2022-10-23T08:43:58.236Z,1.50
2022-10-23T08:46:26.749Z,5.47
2022-10-23T08:49:09.108Z,2.38
2022-10-23T08:51:37.230Z,1.83
2022-10-23T08:54:09.173Z,1.60
2022-10-23T08:56:36.888Z,1.58
2022-10-23T08:59:10.412Z,1.50
2022-10-23T09:01:44.270Z,2.05
2022-10-23T09:04:12.235Z,1.65
2022-10-23T09:06:45.478Z,1.80
2022-10-23T09:09:32.790Z,1.50
2022-10-23T09:12:08.023Z,1.63
2022-10-23T09:14:41.031Z,1.92
2022-10-23T09:17:10.954Z,1.80
2022-10-23T09:19:38.010Z,1.95
2022-10-23T09:22:05.467Z,1.80
2022-10-23T09:24:33.579Z,2.17
2022-10-23T09:27:00.830Z,1.42
2022-10-23T09:29:35.912Z,1.50
2022-10-23T09:32:04.484Z,1.50
2022-10-23T09:34:32.019Z,1.50
2022-10-23T09:36:59.869Z,1.50
2022-10-23T09:39:30.847Z,1.63
2022-10-23T09:41:57.935Z,1.65
2022-10-23T09:44:29.059Z,1.30
2022-10-23T09:46:57.120Z,1.58
2022-10-23T09:49:28.005Z,1.30
2022-10-23T09:52:03.959Z,2.47
2022-10-23T09:54:32.254Z,4.40
2022-10-23T09:57:00.033Z,5.70
2022-10-23T09:59:28.854Z,2.40
2022-10-23T10:01:59.852Z,1.70
2022-10-23T10:04:37.168Z,1.58
2022-10-23T10:07:04.670Z,1.40
2022-10-23T10:09:31.679Z,1.73
2022-10-23T10:12:17.571Z,1.85
2022-10-23T10:14:53.799Z,1.98
2022-10-23T10:17:23.630Z,1.60
2022-10-23T10:19:57.122Z,1.35
2022-10-23T10:22:33.437Z,1.58
2022-10-23T10:25:01.243Z,1.50
2022-10-23T10:27:28.239Z,2.05
2022-10-23T10:30:04.367Z,1.98
2022-10-23T10:32:32.230Z,1.83
2022-10-23T10:35:17.900Z,1.70
2022-10-23T10:37:54.560Z,1.67
2022-10-23T10:40:24.624Z,1.60
2022-10-23T10:43:10.076Z,1.50
2022-10-23T10:46:00.469Z,1.52
2022-10-23T10:50:58.709Z,1.42
2022-10-23T10:53:34.831Z,1.48
2022-10-23T10:56:02.746Z,1.40
2022-10-23T10:58:48.764Z,1.50
2022-10-23T11:01:27.445Z,1.33
2022-10-23T11:03:55.895Z,1.23
2022-10-23T11:06:23.871Z,1.30
2022-10-23T11:08:57.976Z,1.40
2022-10-23T11:11:36.987Z,1.10
2022-10-23T11:14:04.156Z,1.30
2022-10-23T11:16:40.248Z,1.02
2022-10-23T11:19:11.369Z,1.33
2022-10-23T11:21:44.809Z,1.52
2022-10-23T11:24:23.924Z,2.10
2022-10-23T11:26:56.755Z,1.60
2022-10-23T11:29:33.648Z,1.92
2022-10-23T11:32:08.015Z,1.45
2022-10-23T11:34:53.989Z,1.80
2022-10-23T11:37:21.299Z,1.67
2022-10-23T11:39:59.359Z,1.40
2022-10-23T11:42:33.763Z,1.60
2022-10-23T11:45:00.825Z,1.75
2022-10-23T11:47:33.924Z,1.67
2022-10-23T11:50:07.988Z,1.40
2022-10-23T11:52:45.545Z,1.50
2022-10-23T11:55:18.881Z,1.60
2022-10-23T11:57:46.808Z,1.67
2022-10-23T12:00:23.328Z,1.60
2022-10-23T12:02:54.656Z,1.33
2022-10-23T12:05:32.319Z,1.70
2022-10-23T12:07:59.984Z,1.40
2022-10-23T12:10:31.354Z,1.50
2022-10-23T12:12:59.163Z,1.50
2022-10-23T12:15:26.557Z,1.45
2022-10-23T12:17:54.462Z,1.75
2022-10-23T12:20:26.478Z,1.50
2022-10-23T12:22:59.599Z,1.85
2022-10-23T12:25:33.036Z,1.92
2022-10-23T12:28:11.889Z,1.83
2022-10-23T12:30:43.558Z,1.70
2022-10-23T12:33:19.829Z,1.70
2022-10-23T12:35:58.684Z,2.22
2022-10-23T12:38:26.050Z,1.80
2022-10-23T12:41:04.680Z,2.17
2022-10-23T12:43:35.566Z,1.75
2022-10-23T12:46:18.791Z,2.20
2022-10-23T12:48:49.489Z,2.13
2022-10-23T12:51:29.739Z,3.47
2022-10-23T12:56:23.808Z,1.30
2022-10-23T12:58:52.256Z,1.90
2022-10-23T13:01:23.558Z,1.50
2022-10-23T13:03:50.626Z,2.47
2022-10-23T13:06:17.633Z,1.20
2022-10-23T13:08:45.816Z,1.50
2022-10-23T13:11:14.739Z,1.48
2022-10-23T13:13:41.977Z,1.33
2022-10-23T13:16:15.757Z,1.25
2022-10-23T13:18:42.803Z,1.50
2022-10-23T13:21:14.975Z,1.00
2022-10-23T13:23:43.409Z,1.10
2022-10-23T13:26:25.704Z,1.10
2022-10-23T13:28:52.804Z,1.00
2022-10-23T13:31:30.639Z,1.20
2022-10-23T13:34:00.670Z,0.95
2022-10-23T13:36:31.193Z,0.80
2022-10-23T13:39:05.193Z,0.88
2022-10-23T13:41:50.350Z,0.90
2022-10-23T13:44:18.024Z,0.95
2022-10-23T13:46:45.138Z,0.70
2022-10-23T13:49:12.256Z,0.82
2022-10-23T13:51:42.661Z,0.70
2022-10-23T13:54:14.530Z,1.15
2022-10-23T13:56:41.647Z,1.13
2022-10-23T13:59:09.672Z,1.33
2022-10-23T14:01:36.909Z,1.20
2022-10-23T14:04:04.338Z,1.42
2022-10-23T14:06:31.722Z,1.13
2022-10-23T14:08:58.796Z,1.70
2022-10-23T14:11:25.835Z,1.45
2022-10-23T14:13:52.853Z,1.70
2022-10-23T14:16:23.384Z,1.42
2022-10-23T14:18:50.509Z,3.20
2022-10-23T14:21:19.768Z,2.05
2022-10-23T14:23:47.170Z,1.70
2022-10-23T14:26:15.400Z,1.20
2022-10-23T14:28:42.627Z,0.93
2022-10-23T14:31:13.448Z,1.25
2022-10-23T14:33:40.587Z,1.63
2022-10-23T14:36:07.881Z,1.50
2022-10-23T14:38:34.959Z,1.70
2022-10-23T14:41:02.007Z,1.60
2022-10-23T14:43:29.021Z,1.50
2022-10-23T14:45:56.020Z,1.30
2022-10-23T14:48:23.046Z,1.50
2022-10-23T14:50:50.208Z,1.20
2022-10-23T14:53:17.303Z,1.10
2022-10-23T14:55:44.301Z,1.20
2022-10-23T14:58:11.382Z,1.30
2022-10-23T15:00:39.401Z,1.75
2022-10-23T15:03:06.416Z,1.40
2022-10-23T15:05:33.467Z,1.42
2022-10-23T15:08:01.587Z,1.20
2022-10-23T15:10:28.644Z,1.35
2022-10-23T15:12:55.643Z,1.20
2022-10-23T15:15:23.787Z,1.50
2022-10-23T15:17:50.866Z,1.20
2022-10-23T15:20:17.955Z,1.70
2022-10-23T15:22:45.279Z,1.50
2022-10-23T15:25:17.658Z,1.30
2022-10-23T15:27:45.468Z,1.80
2022-10-23T15:30:12.953Z,1.70
2022-10-23T15:32:40.374Z,1.83
2022-10-23T15:35:07.587Z,1.67
2022-10-23T15:37:34.580Z,1.80
2022-10-23T15:40:02.643Z,1.98
2022-10-23T15:42:29.857Z,2.38
2022-10-23T15:44:56.894Z,1.95
2022-10-23T15:47:23.898Z,2.00
2022-10-23T15:49:50.917Z,2.03
2022-10-23T15:52:17.958Z,2.05
2022-10-23T15:54:45.006Z,2.17
2022-10-23T15:57:12.007Z,1.92
2022-10-23T15:59:39.102Z,2.30
2022-10-23T16:02:06.323Z,1.80
2022-10-23T16:04:34.100Z,3.97
2022-10-23T16:07:04.210Z,2.00
2022-10-23T16:09:31.325Z,1.52
2022-10-23T16:11:58.358Z,1.40
2022-10-23T16:14:25.354Z,1.80
2022-10-23T16:16:52.738Z,1.50
2022-10-23T16:19:19.771Z,1.52
2022-10-23T16:21:46.774Z,1.60
2022-10-23T16:24:13.842Z,1.60
2022-10-23T16:26:40.983Z,2.22
2022-10-23T16:29:08.458Z,1.88
2022-10-23T16:31:35.592Z,1.90
2022-10-23T16:34:02.826Z,1.70
2022-10-23T16:36:29.998Z,2.20
2022-10-23T16:38:57.082Z,4.03
2022-10-23T16:41:24.210Z,3.20
2022-10-23T16:43:51.256Z,2.63
2022-10-23T16:46:18.986Z,1.98
2022-10-23T16:48:46.082Z,2.00
2022-10-23T16:51:14.188Z,1.20
2022-10-23T16:53:41.387Z,1.60
2022-10-23T16:56:08.939Z,1.67
2022-10-23T16:58:36.110Z,1.70
2022-10-23T17:01:05.757Z,1.50
2022-10-23T17:03:36.467Z,1.90
2022-10-23T17:06:06.107Z,2.20
2022-10-23T17:08:35.834Z,1.98
2022-10-23T17:11:10.351Z,2.13
2022-10-23T17:13:38.633Z,4.13
2022-10-23T17:16:06.386Z,9.55
2022-10-23T17:18:33.788Z,7.47
2022-10-23T17:21:00.906Z,5.28
2022-10-23T17:23:28.147Z,4.20
2022-10-23T17:25:55.161Z,3.40
2022-10-23T17:28:22.291Z,2.35
2022-10-23T17:30:49.367Z,2.03
2022-10-23T17:33:16.600Z,1.92
2022-10-23T17:35:45.203Z,1.67
2022-10-23T17:38:12.749Z,2.60
2022-10-23T17:40:39.843Z,2.88
2022-10-23T17:43:06.871Z,2.70
2022-10-23T17:45:35.625Z,2.65
2022-10-23T17:48:02.621Z,6.72
2022-10-23T17:50:29.630Z,4.13
2022-10-23T17:52:56.651Z,2.40
2022-10-23T17:55:23.671Z,2.95
2022-10-23T17:57:50.735Z,2.72
2022-10-23T18:00:17.751Z,3.30
2022-10-23T18:02:44.772Z,3.47
2022-10-23T18:05:11.798Z,5.95
2022-10-23T18:07:38.818Z,4.15
2022-10-23T18:10:06.058Z,4.47
2022-10-23T18:12:33.097Z,2.20
2022-10-23T18:15:00.873Z,1.95
2022-10-23T18:17:27.891Z,1.98
2022-10-23T18:19:58.435Z,1.80
2022-10-23T18:22:30.207Z,1.90
2022-10-23T18:24:57.342Z,1.85
2022-10-23T18:27:24.340Z,2.13
2022-10-23T18:29:51.447Z,2.92
2022-10-23T18:32:18.493Z,2.08
2022-10-23T18:34:45.518Z,2.70
2022-10-23T18:37:12.549Z,2.60
2022-10-23T18:39:39.550Z,2.95
2022-10-23T18:42:06.571Z,2.50
2022-10-23T18:44:33.592Z,3.28
2022-10-23T18:47:00.764Z,3.35
2022-10-23T18:49:27.960Z,3.35
2022-10-23T18:51:54.983Z,3.75
2022-10-23T18:54:22.196Z,4.05
2022-10-23T18:56:49.402Z,4.20
2022-10-23T18:59:17.428Z,5.15
2022-10-23T19:01:44.648Z,4.38
2022-10-23T19:04:14.018Z,4.75
2022-10-23T19:06:41.075Z,4.72
2022-10-23T19:09:08.852Z,4.35
2022-10-23T19:11:35.908Z,4.20
2022-10-23T19:14:02.899Z,5.35
2022-10-23T19:16:30.983Z,5.18
2022-10-23T19:19:05.149Z,5.43
2022-10-23T19:21:33.771Z,6.13
2022-10-23T19:24:01.215Z,6.90
2022-10-23T19:26:28.261Z,7.38
2022-10-23T19:28:55.281Z,8.27
2022-10-23T19:31:23.436Z,11.73
2022-10-23T19:33:50.549Z,11.75
2022-10-23T19:36:21.007Z,16.25
2022-10-23T19:38:50.325Z,11.25
2022-10-23T19:41:18.709Z,8.80
2022-10-23T19:43:45.736Z,8.60
2022-10-23T19:46:12.766Z,7.72
2022-10-23T19:48:43.531Z,7.93
2022-10-23T19:51:10.619Z,8.27
2022-10-23T19:53:37.720Z,7.80
2022-10-23T19:56:05.309Z,8.13
2022-10-23T19:58:32.347Z,8.65
2022-10-23T20:00:59.508Z,9.15
2022-10-23T20:03:26.671Z,8.60
2022-10-23T20:05:53.711Z,9.70
2022-10-23T20:08:20.742Z,9.02
2022-10-23T20:10:47.934Z,8.60
2022-10-23T20:13:19.792Z,9.10
2022-10-23T20:15:47.416Z,10.25
2022-10-23T20:18:14.410Z,10.45
2022-10-23T20:20:41.855Z,8.52
2022-10-23T20:23:08.869Z,9.23
2022-10-23T20:25:35.938Z,9.85
2022-10-23T20:28:03.080Z,9.32
2022-10-23T20:30:30.118Z,9.32
2022-10-23T20:32:57.164Z,10.00
2022-10-23T20:35:24.301Z,9.07
2022-10-23T20:37:51.316Z,9.98
2022-10-23T20:40:18.419Z,9.80
2022-10-23T20:42:45.484Z,9.20
2022-10-23T20:45:12.490Z,9.82
2022-10-23T20:47:39.770Z,9.48
2022-10-23T20:50:08.440Z,10.80
2022-10-23T20:52:35.494Z,9.68
2022-10-23T20:55:02.509Z,10.40
2022-10-23T20:57:29.578Z,11.57
2022-10-23T20:59:56.562Z,11.25
2022-10-23T21:02:23.711Z,14.00
2022-10-23T21:04:50.815Z,10.95
2022-10-23T21:07:18.191Z,9.18
2022-10-23T21:09:45.305Z,9.30
2022-10-23T21:12:12.350Z,9.80
2022-10-23T21:14:39.379Z,9.77
2022-10-23T21:17:08.295Z,9.82
2022-10-23T21:19:35.737Z,10.15
2022-10-23T21:22:02.802Z,10.30
2022-10-23T21:24:29.803Z,10.18
2022-10-23T21:26:56.803Z,10.07
2022-10-23T21:29:23.827Z,10.40
2022-10-23T21:31:57.482Z,10.30
2022-10-23T21:34:25.025Z,10.32
2022-10-23T21:39:39.184Z,10.30
2022-10-23T21:42:06.244Z,12.23
2022-10-23T21:44:33.270Z,11.75
2022-10-23T21:47:00.294Z,12.43
2022-10-23T21:49:27.379Z,12.13
2022-10-23T21:51:55.065Z,12.70
2022-10-23T21:54:22.305Z,12.77
2022-10-23T21:56:50.323Z,14.15
2022-10-23T21:59:21.112Z,14.63
2022-10-23T22:01:48.701Z,15.20
2022-10-23T22:04:17.189Z,15.00
2022-10-23T22:06:44.249Z,15.57
2022-10-23T22:09:12.346Z,15.70
2022-10-23T22:11:39.489Z,15.88
2022-10-23T22:14:06.532Z,15.55
2022-10-23T22:16:33.564Z,16.98
2022-10-23T22:19:00.545Z,16.63
2022-10-23T22:21:28.024Z,16.60
2022-10-23T22:23:55.494Z,17.48
2022-10-23T22:26:30.113Z,17.42
2022-10-23T22:28:58.376Z,16.15
2022-10-23T22:31:26.261Z,17.20
2022-10-23T22:33:53.308Z,17.23
2022-10-23T22:36:20.495Z,18.55
2022-10-23T22:38:47.511Z,17.23
2022-10-23T22:41:14.601Z,17.95
2022-10-23T22:43:41.673Z,15.88
2022-10-23T22:46:18.843Z,16.08
2022-10-23T22:48:45.977Z,16.50
2022-10-23T22:51:13.475Z,16.80
2022-10-23T22:53:40.523Z,16.38
2022-10-23T22:56:08.361Z,17.27
2022-10-23T22:58:35.394Z,15.50
2022-10-23T23:01:05.068Z,15.88
2022-10-23T23:03:32.228Z,16.48
2022-10-23T23:05:59.323Z,17.38
2022-10-23T23:08:26.479Z,16.73
2022-10-23T23:10:53.988Z,17.10
2022-10-23T23:13:21.018Z,16.48
2022-10-23T23:15:48.027Z,17.30
2022-10-23T23:18:15.028Z,16.30
2022-10-23T23:20:42.071Z,14.90
2022-10-23T23:23:09.124Z,15.60
2022-10-23T23:25:36.136Z,16.00
2022-10-23T23:28:03.156Z,15.40
2022-10-23T23:30:30.195Z,15.38
2022-10-23T23:32:57.359Z,15.55
2022-10-23T23:35:24.906Z,16.02
2022-10-23T23:37:52.131Z,15.93
2022-10-23T23:40:19.174Z,16.70
2022-10-23T23:42:46.906Z,16.65
2022-10-23T23:45:15.127Z,15.60
2022-10-23T23:47:42.715Z,16.27
2022-10-23T23:50:10.257Z,15.82
2022-10-23T23:52:37.328Z,15.52
2022-10-23T23:55:04.493Z,14.70
2022-10-23T23:57:31.541Z,15.82
2022-10-23T23:59:58.662Z,16.48
